Time;durP1;ratioP1;P1;durP2;ratioP2;P2;SDS_P1;SDS_P2;PMS_P1;PMS_P2;Temp;Humidity;BMP_temperature;BMP_pressure;BME280_temperature;BME280_humidity;BME280_pressure;Samples;Min_cycle;Max_cycle;Signal;HPM_P1;HPM_P2
2023/04/10 00:01:16;;;;;;;77.22;52.83;;;;;;;5.39;100.00;102110.19;4965547;28;20195;-70
2023/04/10 00:03:46;;;;;;;72.72;54.03;;;;;;;5.40;100.00;102107.38;4956838;28;20294;-70
2023/04/10 00:06:15;;;;;;;82.25;54.28;;;;;;;5.38;100.00;102095.91;4954350;28;20219;-69
2023/04/10 00:08:45;;;;;;;82.72;56.80;;;;;;;5.33;100.00;102098.16;4957704;28;20244;-72
2023/04/10 00:11:14;;;;;;;75.18;55.08;;;;;;;5.31;100.00;102100.16;4946594;29;20199;-68
2023/04/10 00:13:44;;;;;;;88.95;53.13;;;;;;;5.27;100.00;102096.06;4949671;28;20208;-72
2023/04/10 00:16:13;;;;;;;77.13;53.15;;;;;;;5.22;100.00;102090.25;4953852;28;20278;-72
2023/04/10 00:18:42;;;;;;;85.75;54.00;;;;;;;5.43;100.00;102090.13;4955094;28;20238;-70
2023/04/10 00:21:11;;;;;;;87.97;51.95;;;;;;;5.28;100.00;102089.69;4958178;28;20277;-69
2023/04/10 00:23:40;;;;;;;92.65;55.58;;;;;;;5.24;100.00;102085.59;4953668;29;20199;-70
2023/04/10 00:26:09;;;;;;;88.90;55.10;;;;;;;5.21;100.00;102085.88;4949505;28;20299;-73
2023/04/10 00:28:39;;;;;;;77.97;52.60;;;;;;;5.19;100.00;102082.47;4947512;28;20770;-71
2023/04/10 00:31:09;;;;;;;74.90;53.92;;;;;;;5.15;100.00;102083.72;4952600;28;20194;-71
2023/04/10 00:33:38;;;;;;;79.57;56.30;;;;;;;5.08;100.00;102079.91;4952072;28;20225;-69
2023/04/10 00:36:08;;;;;;;70.22;51.65;;;;;;;5.05;100.00;102074.81;4949957;28;20279;-70
2023/04/10 00:38:37;;;;;;;72.28;51.63;;;;;;;5.07;100.00;102072.84;4953561;29;20225;-70
2023/04/10 00:41:07;;;;;;;74.95;51.88;;;;;;;5.06;100.00;102071.16;4957562;28;20237;-70
2023/04/10 00:43:36;;;;;;;74.07;48.60;;;;;;;5.03;100.00;102068.75;4953783;28;20244;-71
2023/04/10 00:46:05;;;;;;;76.45;50.30;;;;;;;5.01;100.00;102062.66;4960962;28;20190;-71
2023/04/10 00:48:36;;;;;;;64.43;45.38;;;;;;;5.01;100.00;102066.19;4949892;28;20266;-72
2023/04/10 00:51:07;;;;;;;59.13;42.08;;;;;;;5.04;100.00;102059.69;4953600;29;20286;-71
2023/04/10 00:53:36;;;;;;;68.95;42.20;;;;;;;5.06;100.00;102065.78;4983839;23;20228;-81
2023/04/10 00:56:07;;;;;;;60.45;40.45;;;;;;;5.09;100.00;102062.81;4941683;29;20211;-79
2023/04/10 00:58:37;;;;;;;62.55;40.08;;;;;;;5.03;100.00;102061.56;4947886;29;20203;-79
2023/04/10 01:01:09;;;;;;;61.15;38.75;;;;;;;5.01;100.00;102050.09;4953067;29;20196;-79
2023/04/10 01:03:42;;;;;;;50.20;37.15;;;;;;;5.04;100.00;102057.00;4934250;29;20786;-81
2023/04/10 01:06:19;;;;;;;59.00;36.80;;;;;;;5.03;100.00;102058.03;4923512;29;20203;-81
2023/04/10 01:09:00;;;;;;;55.15;37.55;;;;;;;5.15;100.00;102062.25;4932788;29;20220;-81
2023/04/10 01:11:45;;;;;;;49.85;35.75;;;;;;;5.30;100.00;102065.38;4936537;29;20204;-81
2023/04/10 01:14:23;;;;;;;53.22;33.35;;;;;;;5.15;100.00;102059.56;4921437;29;20223;-81
2023/04/10 01:16:57;;;;;;;53.95;33.70;;;;;;;4.99;100.00;102059.25;4947359;29;20244;-79
2023/04/10 01:19:47;;;;;;;49.17;33.38;;;;;;;4.95;100.00;102057.84;4944557;29;20195;-81
2023/04/10 01:22:17;;;;;;;60.33;36.53;;;;;;;4.93;100.00;102059.81;4924090;29;20224;-82
2023/04/10 01:25:02;;;;;;;54.97;37.90;;;;;;;4.90;100.00;102052.03;4933432;29;20200;-79
2023/04/10 01:27:45;;;;;;;48.15;35.70;;;;;;;4.87;100.00;102060.38;4940858;28;20184;-79
2023/04/10 01:30:20;;;;;;;62.88;39.83;;;;;;;4.80;100.00;102060.91;4931800;29;20208;-80
2023/04/10 01:32:53;;;;;;;54.70;39.33;;;;;;;4.77;100.00;102055.81;4935101;29;20241;-80
2023/04/10 01:35:24;;;;;;;56.53;38.67;;;;;;;4.71;100.00;102059.03;4943464;29;20192;-80
2023/04/10 01:37:55;;;;;;;51.97;37.15;;;;;;;4.67;100.00;102054.94;4935583;29;20199;-81
2023/04/10 01:40:29;;;;;;;55.15;39.83;;;;;;;4.70;100.00;102060.03;4946242;29;20192;-80
2023/04/10 01:43:03;;;;;;;53.10;38.55;;;;;;;4.71;100.00;102061.72;4925384;29;20246;-79
2023/04/10 01:45:47;;;;;;;50.22;37.70;;;;;;;4.60;100.00;102069.03;4935699;29;20196;-81
2023/04/10 01:48:19;;;;;;;55.90;39.65;;;;;;;4.57;100.00;102053.19;4916767;29;20215;-80
2023/04/10 01:50:50;;;;;;;60.80;40.45;;;;;;;4.51;100.00;102051.06;4947012;29;20220;-81
2023/04/10 01:53:20;;;;;;;53.15;37.75;;;;;;;4.49;100.00;102045.84;4944374;29;20333;-80
2023/04/10 01:55:50;;;;;;;51.47;36.60;;;;;;;4.48;100.00;102049.50;4925374;29;20208;-80
2023/04/10 01:58:20;;;;;;;55.53;39.67;;;;;;;4.49;100.00;102040.47;4956249;29;20215;-80
2023/04/10 02:00:51;;;;;;;56.22;39.13;;;;;;;4.52;100.00;102047.41;4930664;29;20230;-80
2023/04/10 02:03:21;;;;;;;54.05;39.55;;;;;;;4.49;100.00;102047.69;4966811;28;20212;-79
2023/04/10 02:06:02;;;;;;;61.85;41.40;;;;;;;4.44;100.00;102045.41;4935029;28;20183;-80
2023/04/10 02:08:38;;;;;;;64.07;42.95;;;;;;;4.46;100.00;102046.09;4948086;28;20210;-79
2023/04/10 02:11:16;;;;;;;48.55;35.95;;;;;;;4.57;100.00;102054.06;4950706;28;20210;-79
2023/04/10 02:13:47;;;;;;;59.50;38.28;;;;;;;4.81;100.00;102051.03;4941689;28;20214;-79
2023/04/10 02:16:23;;;;;;;50.15;36.88;;;;;;;4.85;100.00;102046.22;4943919;28;20286;-79
2023/04/10 02:18:55;;;;;;;56.17;37.38;;;;;;;4.63;100.00;102042.78;4943743;28;20226;-80
2023/04/10 02:21:25;;;;;;;56.42;37.53;;;;;;;4.55;100.00;102044.47;4938375;28;20215;-80
2023/04/10 02:23:58;;;;;;;62.92;40.88;;;;;;;4.62;100.00;102040.25;4932874;29;20220;-80
2023/04/10 02:26:27;;;;;;;58.40;42.15;;;;;;;4.55;100.00;102041.78;4940232;29;20748;-81
2023/04/10 02:28:57;;;;;;;53.22;39.65;;;;;;;4.41;100.00;102045.66;4916280;29;20293;-81
2023/04/10 02:31:30;;;;;;;58.67;42.30;;;;;;;4.30;100.00;102045.75;4930638;29;20207;-81
2023/04/10 02:34:00;;;;;;;60.63;40.65;;;;;;;4.21;100.00;102046.56;4932006;29;20220;-80
2023/04/10 02:36:30;;;;;;;68.47;42.83;;;;;;;4.17;100.00;102051.31;4924928;29;20204;-80
2023/04/10 02:39:00;;;;;;;59.88;38.88;;;;;;;4.17;100.00;102051.31;4938885;29;20273;-80
2023/04/10 02:41:30;;;;;;;57.83;40.42;;;;;;;4.15;100.00;102047.09;4939268;29;20210;-80
2023/04/10 02:44:02;;;;;;;56.33;41.15;;;;;;;4.08;100.00;102051.25;4932036;29;20228;-81
2023/04/10 02:46:33;;;;;;;60.00;38.33;;;;;;;4.01;100.00;102039.41;4933527;29;20210;-81
2023/04/10 02:49:03;;;;;;;59.40;38.92;;;;;;;3.98;100.00;102047.69;4933734;29;20211;-81
2023/04/10 02:51:36;;;;;;;61.25;42.10;;;;;;;3.94;100.00;102061.34;4929960;29;20226;-80
2023/04/10 02:54:06;;;;;;;67.82;42.30;;;;;;;3.86;100.00;102052.25;4934854;29;20399;-79
2023/04/10 02:56:36;;;;;;;58.65;40.60;;;;;;;3.83;100.00;102055.19;4941804;28;20192;-79
2023/04/10 02:59:05;;;;;;;62.83;41.78;;;;;;;3.81;100.00;102054.50;4934116;28;20216;-80
2023/04/10 03:01:38;;;;;;;60.97;38.85;;;;;;;3.83;100.00;102058.72;4931181;29;20195;-81
2023/04/10 03:04:07;;;;;;;57.70;42.55;;;;;;;3.86;100.00;102055.78;4927704;29;20203;-79
2023/04/10 03:06:40;;;;;;;56.95;39.33;;;;;;;4.00;100.00;102064.47;4925659;29;20471;-81
2023/04/10 03:09:09;;;;;;;61.70;40.70;;;;;;;3.86;100.00;102058.47;4939821;29;20203;-80
2023/04/10 03:11:39;;;;;;;54.38;39.03;;;;;;;3.82;100.00;102057.03;4933475;29;20207;-80
2023/04/10 03:14:11;;;;;;;52.30;40.05;;;;;;;3.77;100.00;102059.25;4935325;29;20220;-82
2023/04/10 03:16:42;;;;;;;64.97;42.95;;;;;;;3.75;100.00;102058.53;4927874;29;20342;-81
2023/04/10 03:19:11;;;;;;;52.47;38.38;;;;;;;3.79;100.00;102056.44;4925521;29;20251;-79
2023/04/10 03:21:41;;;;;;;59.05;40.65;;;;;;;4.02;100.00;102054.50;4927258;29;20203;-80
2023/04/10 03:24:10;;;;;;;58.05;37.95;;;;;;;3.99;100.00;102065.44;4933808;29;20377;-79
2023/04/10 03:26:39;;;;;;;57.63;40.63;;;;;;;3.81;100.00;102055.34;4942610;29;20203;-80
2023/04/10 03:29:08;;;;;;;53.10;35.67;;;;;;;3.70;100.00;102055.38;4931706;29;20283;-80
2023/04/10 03:31:37;;;;;;;55.70;37.70;;;;;;;3.72;100.00;102056.13;4937305;29;20204;-81
2023/04/10 03:34:08;;;;;;;48.47;33.97;;;;;;;3.62;100.00;102049.84;4932430;29;20218;-80
2023/04/10 03:36:38;;;;;;;55.38;38.38;;;;;;;3.56;100.00;102055.69;4937175;29;20194;-79
2023/04/10 03:39:07;;;;;;;55.65;36.60;;;;;;;3.51;100.00;102052.56;4929013;29;20198;-79
2023/04/10 03:41:36;;;;;;;61.78;40.83;;;;;;;3.46;100.00;102054.78;4928009;29;20195;-79
2023/04/10 03:44:07;;;;;;;56.05;40.15;;;;;;;3.40;100.00;102056.13;4927299;29;20228;-79
2023/04/10 03:46:39;;;;;;;60.88;38.40;;;;;;;3.38;100.00;102057.25;4945253;29;20217;-82
2023/04/10 03:49:16;;;;;;;51.88;36.75;;;;;;;3.35;100.00;102052.13;4929550;29;20290;-80
2023/04/10 03:51:48;;;;;;;51.22;36.67;;;;;;;3.33;100.00;102059.44;4926660;29;20218;-80
2023/04/10 03:54:19;;;;;;;52.83;36.35;;;;;;;3.34;100.00;102053.94;4928642;29;20226;-79
2023/04/10 03:56:49;;;;;;;46.80;35.50;;;;;;;3.30;100.00;102065.88;4919822;29;20204;-81
2023/04/10 03:59:18;;;;;;;55.05;36.88;;;;;;;3.28;100.00;102058.97;4934720;29;20231;-80
2023/04/10 04:01:53;;;;;;;52.88;39.40;;;;;;;3.38;100.00;102059.91;4935927;29;20202;-81
2023/04/10 04:04:26;;;;;;;52.08;38.13;;;;;;;3.29;100.00;102061.50;4928121;29;20290;-80
2023/04/10 04:07:02;;;;;;;56.50;36.60;;;;;;;3.29;100.00;102055.34;4932910;29;20203;-79
2023/04/10 04:10:11;;;;;;;57.83;37.97;;;;;;;3.26;100.00;102053.75;4919289;29;20246;-81
2023/04/10 04:12:53;;;;;;;51.80;34.55;;;;;;;3.30;100.00;102063.22;4924061;29;20216;-81
2023/04/10 04:15:36;;;;;;;52.30;36.03;;;;;;;3.35;100.00;102049.44;4929851;29;20203;-83
2023/04/10 04:18:18;;;;;;;45.40;34.38;;;;;;;3.45;100.00;102055.75;4933845;29;20216;-81
2023/04/10 04:20:58;;;;;;;51.67;33.10;;;;;;;3.72;100.00;102047.25;4927629;29;20632;-81
2023/04/10 04:23:54;;;;;;;52.90;33.25;;;;;;;3.68;100.00;102045.81;4918241;29;20250;-82
2023/04/10 04:26:48;;;;;;;52.83;31.25;;;;;;;3.67;100.00;102052.97;4927603;29;20638;-81
2023/04/10 04:29:53;;;;;;;48.90;29.02;;;;;;;3.67;100.00;102052.97;4922028;29;20796;-80
2023/04/10 04:32:44;;;;;;;41.83;27.75;;;;;;;3.74;100.00;102053.28;4940354;29;20233;-82
2023/04/10 04:35:25;;;;;;;48.30;29.10;;;;;;;3.80;100.00;102050.09;4933330;29;20737;-79
2023/04/10 04:38:15;;;;;;;48.15;32.58;;;;;;;3.84;100.00;102057.75;4928769;29;20651;-81
2023/04/10 04:41:03;;;;;;;40.50;29.13;;;;;;;3.87;100.00;102054.78;4933649;29;20223;-81
2023/04/10 04:44:00;;;;;;;47.70;31.77;;;;;;;3.91;100.00;102056.25;4924398;29;20261;-81
2023/04/10 04:46:47;;;;;;;44.10;28.70;;;;;;;3.98;100.00;102053.03;4926423;29;20665;-81
2023/04/10 04:49:25;;;;;;;42.20;27.90;;;;;;;4.12;100.00;102058.03;4930032;29;20202;-80
2023/04/10 04:52:17;;;;;;;48.10;28.83;;;;;;;4.36;100.00;102053.25;4934786;28;20251;-81
2023/04/10 04:55:00;;;;;;;48.70;28.10;;;;;;;4.41;100.00;102056.38;4940210;28;20179;-80
2023/04/10 04:57:48;;;;;;;47.85;28.20;;;;;;;4.59;100.00;102046.75;4936024;29;20210;-80
2023/04/10 05:00:46;;;;;;;41.40;29.20;;;;;;;4.93;100.00;102049.09;4926644;29;20212;-81
2023/04/10 05:03:40;;;;;;;42.88;27.38;;;;;;;5.91;100.00;102052.53;4928801;29;20254;-81
2023/04/10 05:06:33;;;;;;;39.60;27.33;;;;;;;6.94;96.29;102054.16;4928618;29;20212;-80
2023/04/10 05:09:14;;;;;;;41.35;26.98;;;;;;;7.18;91.43;102061.66;4939591;29;20204;-80
2023/04/10 05:12:04;;;;;;;34.22;24.70;;;;;;;7.34;89.22;102059.16;4948603;28;20242;-80
2023/04/10 05:14:57;;;;;;;36.45;22.20;;;;;;;6.73;90.04;102055.41;4931655;28;20195;-79
2023/04/10 05:17:49;;;;;;;26.45;20.45;;;;;;;5.95;94.32;102064.72;4942704;28;20179;-78
2023/04/10 05:20:35;;;;;;;30.92;22.70;;;;;;;5.63;98.01;102063.16;4933027;28;20798;-78
2023/04/10 05:23:28;;;;;;;29.73;22.15;;;;;;;5.55;100.00;102057.66;4927581;28;20455;-79
2023/04/10 05:26:23;;;;;;;38.83;24.08;;;;;;;5.64;100.00;102056.78;4940150;28;20184;-79
2023/04/10 05:29:12;;;;;;;35.05;21.42;;;;;;;5.75;100.00;102063.88;4942679;28;20182;-78
2023/04/10 05:31:54;;;;;;;29.67;24.20;;;;;;;5.84;100.00;102068.38;4935997;28;20203;-80
2023/04/10 05:34:44;;;;;;;36.70;24.00;;;;;;;5.94;100.00;102074.63;4944883;29;20225;-79
2023/04/10 05:37:34;;;;;;;31.52;21.60;;;;;;;6.08;99.32;102068.78;4944880;29;20238;-82
2023/04/10 05:40:22;;;;;;;30.67;22.85;;;;;;;6.18;98.71;102071.47;4935890;29;20208;-80
2023/04/10 05:42:57;;;;;;;34.92;25.02;;;;;;;6.32;98.59;102062.09;4934236;29;20243;-79
2023/04/10 05:45:36;;;;;;;26.85;21.42;;;;;;;6.55;97.87;102066.94;4932204;28;20230;-79
2023/04/10 05:48:20;;;;;;;32.25;20.75;;;;;;;6.89;96.41;102066.38;4942016;28;20205;-80
2023/04/10 05:51:19;;;;;;;31.20;21.67;;;;;;;7.15;95.38;102055.75;4931462;28;20207;-80
2023/04/10 05:54:17;;;;;;;32.65;20.48;;;;;;;7.38;93.70;102067.75;4945250;28;20217;-79
2023/04/10 05:57:04;;;;;;;28.98;21.88;;;;;;;7.47;92.63;102055.22;4944519;28;20199;-79
2023/04/10 05:59:48;;;;;;;32.22;24.67;;;;;;;7.64;92.13;102059.78;4939246;28;20198;-80
2023/04/10 06:02:30;;;;;;;29.10;20.92;;;;;;;7.83;91.26;102056.91;4941722;28;20289;-79
2023/04/10 06:05:00;;;;;;;26.73;19.25;;;;;;;7.90;90.40;102057.94;4949737;28;20190;-81
2023/04/10 06:07:33;;;;;;;30.83;20.25;;;;;;;8.03;90.30;102063.81;4940295;28;20191;-79
2023/04/10 06:10:02;;;;;;;27.40;20.33;;;;;;;8.21;89.59;102056.50;4935601;28;20220;-79
2023/04/10 06:12:35;;;;;;;26.35;19.50;;;;;;;8.44;89.12;102062.22;4937626;28;20236;-79
2023/04/10 06:15:07;;;;;;;27.17;19.75;;;;;;;8.61;87.75;102064.03;4934844;28;20183;-79
2023/04/10 06:17:44;;;;;;;33.15;19.98;;;;;;;8.75;86.98;102062.56;4943296;28;20214;-79
2023/04/10 06:20:13;;;;;;;30.35;20.05;;;;;;;8.90;86.23;102058.25;4951265;28;20301;-80
2023/04/10 06:22:43;;;;;;;28.42;21.38;;;;;;;9.02;86.16;102051.53;4939146;29;20226;-79
2023/04/10 06:25:12;;;;;;;24.98;18.60;;;;;;;9.23;85.21;102048.38;4936222;29;20210;-80
2023/04/10 06:27:41;;;;;;;27.05;18.90;;;;;;;9.39;84.60;102048.41;4926440;29;20196;-79
2023/04/10 06:30:12;;;;;;;27.70;18.95;;;;;;;9.46;83.83;102051.28;4938255;29;20194;-81
2023/04/10 06:32:43;;;;;;;24.85;18.90;;;;;;;9.64;83.44;102049.28;4930367;29;20227;-81
2023/04/10 06:35:13;;;;;;;28.17;17.58;;;;;;;9.70;83.04;102051.31;4932919;29;20203;-81
2023/04/10 06:37:43;;;;;;;28.42;19.00;;;;;;;9.62;83.11;102045.91;4917170;29;20231;-81
2023/04/10 06:40:14;;;;;;;20.85;18.08;;;;;;;9.70;83.22;102043.19;4925886;29;20219;-80
2023/04/10 06:42:43;;;;;;;27.25;18.77;;;;;;;9.78;82.79;102047.78;4940354;29;20216;-80
2023/04/10 06:45:28;;;;;;;29.60;20.20;;;;;;;9.97;82.73;102053.66;4934835;29;20215;-80
2023/04/10 06:47:59;;;;;;;27.75;19.58;;;;;;;10.09;81.63;102042.50;4939124;29;20193;-80
2023/04/10 06:50:29;;;;;;;26.90;21.90;;;;;;;10.18;81.91;102031.53;4934306;28;20216;-81
2023/04/10 06:53:01;;;;;;;30.37;19.00;;;;;;;10.30;80.98;102041.00;4962241;23;20541;-81
2023/04/10 06:55:30;;;;;;;25.73;18.40;;;;;;;10.31;80.78;102039.94;4972510;28;20405;-79
2023/04/10 06:57:59;;;;;;;28.73;21.30;;;;;;;10.42;80.45;102045.00;4975480;28;20293;-81
2023/04/10 07:00:30;;;;;;;25.97;20.63;;;;;;;10.47;80.20;102049.88;4973563;28;20482;-78
2023/04/10 07:03:00;;;;;;;29.20;21.00;;;;;;;10.45;80.19;102038.41;4966709;28;20534;-79
2023/04/10 07:05:30;;;;;;;33.70;23.80;;;;;;;10.61;80.12;102051.88;4952978;28;20461;-80
2023/04/10 07:07:59;;;;;;;31.07;21.47;;;;;;;10.74;79.69;102035.09;4976179;28;20419;-81
2023/04/10 07:10:28;;;;;;;31.67;23.43;;;;;;;10.59;79.95;102043.09;4970733;28;20446;-80
2023/04/10 07:12:57;;;;;;;31.50;24.90;;;;;;;10.68;80.44;102046.63;4979216;28;20465;-79
2023/04/10 07:15:26;;;;;;;30.43;22.40;;;;;;;10.90;79.71;102040.41;4948400;28;20261;-82
2023/04/10 07:17:55;;;;;;;32.33;24.87;;;;;;;10.97;79.71;102048.69;4965485;28;20436;-80
2023/04/10 07:20:26;;;;;;;36.00;23.63;;;;;;;11.02;78.82;102049.00;4972586;28;20448;-81
2023/04/10 07:22:55;;;;;;;39.93;24.53;;;;;;;11.20;78.00;102041.44;4967438;28;20425;-79
2023/04/10 07:25:25;;;;;;;37.83;27.47;;;;;;;11.30;77.71;102050.19;4969625;28;20675;-82
2023/04/10 07:27:54;;;;;;;34.10;26.43;;;;;;;11.38;77.72;102052.84;4970320;28;20437;-79
2023/04/10 07:30:23;;;;;;;38.13;27.60;;;;;;;11.49;76.64;102047.00;4982787;28;20464;-79
2023/04/10 07:32:52;;;;;;;38.23;24.80;;;;;;;11.63;75.96;102043.53;4971229;28;20478;-79
2023/04/10 07:35:21;;;;;;;33.83;27.83;;;;;;;11.64;75.51;102044.38;4981078;28;20485;-78
2023/04/10 07:37:53;;;;;;;37.47;28.80;;;;;;;11.63;75.89;102035.38;4974522;28;20417;-82
2023/04/10 07:40:22;;;;;;;41.13;28.63;;;;;;;11.34;76.26;102036.09;4958615;28;20443;-83
2023/04/10 07:42:51;;;;;;;33.30;25.53;;;;;;;11.45;76.65;102039.44;4966861;28;22146;-82
2023/04/10 07:45:21;;;;;;;39.67;28.87;;;;;;;11.55;76.23;102034.63;4975323;28;20443;-82
2023/04/10 07:47:50;;;;;;;39.10;28.10;;;;;;;11.85;75.32;102030.16;4976388;28;20446;-83
2023/04/10 07:50:20;;;;;;;44.37;29.83;;;;;;;11.91;74.06;102043.00;4970616;28;20401;-82
2023/04/10 07:52:51;;;;;;;41.27;30.03;;;;;;;11.88;74.77;102032.50;4966562;28;20438;-83
2023/04/10 07:55:20;;;;;;;38.80;30.40;;;;;;;12.14;73.37;102030.22;4960189;28;20425;-82
2023/04/10 07:57:51;;;;;;;41.00;30.23;;;;;;;12.17;73.07;102032.56;4947573;28;20451;-82
2023/04/10 08:00:20;;;;;;;40.90;30.53;;;;;;;12.21;73.35;102020.31;4950818;29;20441;-81
2023/04/10 08:02:49;;;;;;;41.10;28.27;;;;;;;12.41;72.58;102029.59;4957819;28;20449;-82
2023/04/10 08:05:19;;;;;;;39.33;29.73;;;;;;;12.69;71.73;102024.34;4970367;28;20424;-81
2023/04/10 08:07:48;;;;;;;47.40;31.20;;;;;;;12.60;70.75;102017.31;4949633;28;20445;-81
2023/04/10 08:10:19;;;;;;;39.90;30.57;;;;;;;12.80;70.77;102014.88;4969307;28;20415;-81
2023/04/10 08:12:48;;;;;;;38.10;31.27;;;;;;;13.03;70.02;102010.13;4968779;28;20454;-79
2023/04/10 08:15:18;;;;;;;47.03;32.90;;;;;;;13.06;69.31;102017.91;4957586;28;20437;-81
2023/04/10 08:17:47;;;;;;;37.27;27.57;;;;;;;13.28;68.74;102008.78;4975963;28;20882;-80
2023/04/10 08:20:16;;;;;;;40.93;29.97;;;;;;;13.39;67.51;102010.16;4957627;28;20422;-82
2023/04/10 08:22:45;;;;;;;37.03;27.57;;;;;;;13.59;67.58;102010.34;4968689;28;20493;-81
2023/04/10 08:25:14;;;;;;;40.27;28.80;;;;;;;13.80;66.26;102007.59;4965598;28;20432;-82
2023/04/10 08:27:45;;;;;;;33.27;26.93;;;;;;;13.73;65.64;102007.56;4954207;28;20574;-80
2023/04/10 08:30:14;;;;;;;30.93;26.77;;;;;;;13.79;65.52;102003.22;4973498;28;20415;-82
2023/04/10 08:32:43;;;;;;;36.43;24.47;;;;;;;13.78;64.83;102007.81;4966182;28;20421;-78
2023/04/10 08:35:12;;;;;;;34.10;26.70;;;;;;;13.80;65.54;102007.59;4956918;29;20415;-80
2023/04/10 08:37:42;;;;;;;33.83;25.17;;;;;;;13.74;64.88;101997.50;4981067;28;20447;-79
2023/04/10 08:40:21;;;;;;;35.80;26.10;;;;;;;14.01;64.89;101999.41;4961557;28;20491;-81
2023/04/10 08:42:52;;;;;;;33.17;25.97;;;;;;;14.10;64.52;102000.09;4960941;28;20423;-81
2023/04/10 08:45:22;;;;;;;36.80;25.87;;;;;;;14.20;64.20;101997.84;4971109;28;20482;-82
2023/04/10 08:47:52;;;;;;;31.10;24.37;;;;;;;14.06;63.33;101996.94;4975838;28;20429;-81
2023/04/10 08:50:21;;;;;;;30.77;24.87;;;;;;;14.00;63.95;101996.88;4958387;28;20471;-81
2023/04/10 08:52:55;;;;;;;33.43;25.43;;;;;;;14.17;63.83;101988.22;4981434;28;20421;-81
2023/04/10 08:55:25;;;;;;;34.43;25.40;;;;;;;14.37;62.70;101993.81;4975193;28;21485;-82
2023/04/10 08:57:55;;;;;;;32.60;22.30;;;;;;;14.65;61.97;101988.31;4968569;28;20420;-80
2023/04/10 09:00:33;;;;;;;27.07;22.13;;;;;;;14.64;61.12;101987.47;4974379;28;20435;-81
2023/04/10 09:03:03;;;;;;;25.93;20.57;;;;;;;14.82;60.82;101986.06;4954232;28;20449;-80
2023/04/10 09:05:39;;;;;;;35.00;24.27;;;;;;;14.83;60.19;101985.84;4958742;28;20407;-80
2023/04/10 09:08:13;;;;;;;37.10;23.33;;;;;;;14.96;59.60;101977.72;4971870;28;20417;-82
2023/04/10 09:10:51;;;;;;;27.60;19.43;;;;;;;14.82;57.43;101972.44;4970450;28;20442;-83
2023/04/10 09:14:10;;;;;;;;;;;;;;;;;;;;;
2023/04/10 09:17:14;;;;;;;26.50;18.10;;;;;;;14.66;55.81;101962.75;4956861;28;20823;-80
2023/04/10 09:19:48;;;;;;;25.47;18.00;;;;;;;14.86;56.04;101957.38;4962610;28;20409;-81
2023/04/10 09:22:29;;;;;;;25.23;19.63;;;;;;;14.96;55.38;101953.19;4939314;28;20973;-81
2023/04/10 09:25:04;;;;;;;29.03;22.23;;;;;;;14.80;58.63;101945.41;4953710;28;20865;-83
2023/04/10 09:27:39;;;;;;;33.63;23.13;;;;;;;14.69;59.14;101944.09;4968407;28;20421;-81
2023/04/10 09:30:35;;;;;;;29.73;22.43;;;;;;;14.44;59.51;101939.38;4965411;28;20451;-81
2023/04/10 09:33:29;;;;;;;31.70;23.77;;;;;;;14.79;59.16;101941.00;4968289;28;21126;-81
2023/04/10 09:36:00;;;;;;;30.93;22.57;;;;;;;14.84;59.06;101943.09;4957135;28;20435;-81
2023/04/10 09:39:12;;;;;;;29.63;22.77;;;;;;;14.94;58.73;101936.22;4931975;28;20444;-83
2023/04/10 09:41:53;;;;;;;32.30;22.40;;;;;;;15.01;57.85;101933.50;4972987;28;20479;-81
2023/04/10 09:44:31;;;;;;;31.87;23.40;;;;;;;15.30;57.94;101921.41;4951572;28;21025;-83
2023/04/10 09:47:17;;;;;;;28.17;19.90;;;;;;;15.54;56.01;101915.34;4962500;28;20442;-83
2023/04/10 09:49:48;;;;;;;24.80;16.03;;;;;;;15.55;55.48;101915.13;4972367;28;20411;-81
2023/04/10 09:52:21;;;;;;;20.30;17.07;;;;;;;15.44;55.89;101915.72;4952086;28;20511;-81
2023/04/10 09:54:51;;;;;;;25.67;16.57;;;;;;;15.52;55.54;101918.28;4969649;28;20485;-81
2023/04/10 09:57:21;;;;;;;21.27;16.10;;;;;;;15.56;55.67;101915.97;4954491;28;20508;-82
2023/04/10 09:59:52;;;;;;;21.40;17.10;;;;;;;15.64;55.13;101899.38;4962511;28;20430;-82
2023/04/10 10:02:24;;;;;;;23.73;16.97;;;;;;;15.65;55.04;101901.06;4968522;28;20420;-81
2023/04/10 10:04:54;;;;;;;20.00;15.50;;;;;;;15.90;54.81;101904.81;4971906;28;20457;-78
2023/04/10 10:07:25;;;;;;;20.13;16.27;;;;;;;15.78;54.83;101895.56;4951877;28;20429;-82
2023/04/10 10:09:54;;;;;;;22.17;16.83;;;;;;;15.99;53.96;101892.59;4978038;28;20429;-81
2023/04/10 10:12:30;;;;;;;21.07;15.30;;;;;;;15.88;54.48;101886.94;4962909;28;20453;-81
2023/04/10 10:15:05;;;;;;;24.83;17.03;;;;;;;15.56;55.34;101885.97;4965871;28;20480;-81
2023/04/10 10:17:45;;;;;;;21.53;16.50;;;;;;;15.57;55.94;101882.19;4972273;28;20441;-80
2023/04/10 10:20:18;;;;;;;20.57;15.60;;;;;;;15.76;55.53;101878.59;4949928;28;20512;-79
2023/04/10 10:22:50;;;;;;;21.20;13.87;;;;;;;16.01;55.05;101885.06;4981781;28;20412;-79
2023/04/10 10:25:20;;;;;;;22.03;16.87;;;;;;;16.21;54.68;101871.34;4967824;28;20428;-80
2023/04/10 10:27:52;;;;;;;20.30;16.70;;;;;;;16.32;54.94;101862.44;4975821;28;20424;-80
2023/04/10 10:30:21;;;;;;;21.10;15.90;;;;;;;16.29;54.60;101864.78;4966435;28;20928;-82
2023/04/10 10:33:01;;;;;;;25.73;16.47;;;;;;;16.49;54.64;101865.53;4972633;28;20433;-79
2023/04/10 10:35:32;;;;;;;24.20;15.80;;;;;;;16.32;54.43;101864.34;4972522;28;20465;-79
2023/04/10 10:38:02;;;;;;;21.47;16.93;;;;;;;16.01;55.02;101857.75;4974052;28;20442;-82
2023/04/10 10:40:41;;;;;;;18.80;12.80;;;;;;;16.46;54.21;101844.94;4963703;28;20446;-80
2023/04/10 10:43:20;;;;;;;17.27;14.37;;;;;;;16.57;54.01;101851.63;4962592;28;20482;-82
2023/04/10 10:45:54;;;;;;;22.60;17.17;;;;;;;16.50;54.23;101845.38;4963172;28;20437;-84
2023/04/10 10:48:25;;;;;;;21.57;15.53;;;;;;;16.51;54.17;101845.13;4974369;28;20555;-83
2023/04/10 10:51:00;;;;;;;23.47;16.17;;;;;;;16.19;54.90;101837.94;4952508;28;20447;-80
2023/04/10 10:53:39;;;;;;;20.30;15.67;;;;;;;16.50;54.87;101828.97;4965604;28;21103;-83
2023/04/10 10:56:33;;;;;;;25.77;17.10;;;;;;;16.67;53.64;101827.41;4979886;28;20459;-80
2023/04/10 10:59:03;;;;;;;19.33;13.73;;;;;;;16.65;53.16;101832.28;4958950;28;20469;-81
2023/04/10 11:01:32;;;;;;;22.57;16.20;;;;;;;16.28;53.49;101825.72;4977830;28;20449;-80
2023/04/10 11:04:38;;;;;;;19.73;14.27;;;;;;;16.20;53.63;101822.38;4975602;28;20538;-79
2023/04/10 11:07:10;;;;;;;18.37;14.43;;;;;;;16.25;53.49;101822.59;4973998;28;20428;-82
2023/04/10 11:09:50;;;;;;;23.53;16.93;;;;;;;16.63;52.86;101823.47;4968349;28;20420;-79
2023/04/10 11:12:23;;;;;;;17.20;13.27;;;;;;;16.94;51.50;101809.75;4956776;29;20456;-83
2023/04/10 11:14:59;;;;;;;18.77;11.50;;;;;;;16.95;51.01;101805.97;4965918;28;20481;-83
2023/04/10 11:17:46;;;;;;;16.00;11.90;;;;;;;16.91;51.05;101804.75;4963880;28;20443;-82
2023/04/10 11:20:18;;;;;;;18.70;12.07;;;;;;;16.97;51.51;101800.28;4963457;28;20432;-83
2023/04/10 11:23:10;;;;;;;15.13;11.87;;;;;;;17.16;51.06;101796.56;4965703;28;20433;-81
2023/04/10 11:25:50;;;;;;;16.07;12.87;;;;;;;17.09;50.01;101794.94;4968949;28;20899;-83
2023/04/10 11:28:38;;;;;;;16.20;10.80;;;;;;;17.22;50.13;101790.19;4943744;28;20443;-79
2023/04/10 11:31:20;;;;;;;14.70;8.53;;;;;;;17.09;49.17;101790.28;4966945;28;20804;-81
2023/04/10 11:34:06;;;;;;;12.77;9.40;;;;;;;17.11;49.52;101787.34;4966145;28;20524;-80
2023/04/10 11:36:44;;;;;;;13.93;9.73;;;;;;;17.22;48.97;101778.41;4962029;28;20430;-82
2023/04/10 11:39:17;;;;;;;10.83;9.70;;;;;;;17.25;49.02;101775.22;4959576;28;20815;-82
2023/04/10 11:41:48;;;;;;;12.03;10.23;;;;;;;17.69;48.74;101775.00;4961049;28;20462;-81
2023/04/10 11:44:20;;;;;;;8.53;7.63;;;;;;;17.67;47.16;101762.63;4970620;28;20437;-82
2023/04/10 11:46:50;;;;;;;12.57;9.10;;;;;;;17.75;47.46;101763.16;4951405;29;20430;-80
2023/04/10 11:49:21;;;;;;;11.20;10.00;;;;;;;17.76;47.54;101759.34;4960130;28;20936;-81